createdAt,value
2019-04-05T00:01:30.219Z,82.77
2019-04-05T00:03:56.158Z,84.50
2019-04-05T00:06:22.272Z,83.91
2019-04-05T00:08:50.143Z,83.87
2019-04-05T00:11:15.982Z,82.88
2019-04-05T00:13:41.695Z,83.28
2019-04-05T00:16:08.356Z,83.67
2019-04-05T00:18:34.086Z,83.20
2019-04-05T00:20:59.821Z,83.59
2019-04-05T00:23:25.589Z,84.07
2019-04-05T00:25:51.435Z,84.45
2019-04-05T00:28:18.174Z,84.83
2019-04-05T00:30:43.981Z,84.36
2019-04-05T00:33:09.735Z,83.88
2019-04-05T00:35:35.420Z,84.57
2019-04-05T00:38:01.264Z,84.43
2019-04-05T00:40:27.059Z,84.25
2019-04-05T00:42:52.832Z,84.10
2019-04-05T00:45:27.983Z,84.80
2019-04-05T00:47:46.508Z,84.29
2019-04-05T00:50:12.476Z,83.83
2019-04-05T00:52:38.318Z,84.51
2019-04-05T00:55:04.832Z,84.91
2019-04-05T00:57:30.500Z,84.87
2019-04-05T00:59:56.465Z,84.11
2019-04-05T01:02:22.185Z,84.56
2019-04-05T01:04:47.952Z,84.71
2019-04-05T01:07:13.766Z,84.64
2019-04-05T01:09:39.581Z,84.52
2019-04-05T01:12:05.518Z,85.21
2019-04-05T01:14:31.338Z,84.91
2019-04-05T01:16:57.139Z,85.31
2019-04-05T01:19:24.887Z,85.45
2019-04-05T01:21:52.562Z,85.44
2019-04-05T01:24:18.725Z,85.47
2019-04-05T01:26:45.298Z,85.05
2019-04-05T01:29:11.451Z,85.44
2019-04-05T01:31:37.189Z,85.34
2019-04-05T01:34:05.383Z,84.72
2019-04-05T01:36:30.811Z,84.63
2019-04-05T01:38:56.707Z,85.15
2019-04-05T01:41:22.508Z,85.09
2019-04-05T01:43:48.512Z,84.89
2019-04-05T01:46:14.184Z,84.76
2019-04-05T01:48:40.166Z,84.49
2019-04-05T01:51:06.125Z,84.46
2019-04-05T01:53:31.941Z,85.00
2019-04-05T01:55:57.749Z,85.06
2019-04-05T01:58:23.647Z,84.30
2019-04-05T02:00:49.450Z,83.90
2019-04-05T02:03:15.209Z,84.05
2019-04-05T02:05:41.325Z,83.77
2019-04-05T02:08:07.119Z,84.14
2019-04-05T02:10:32.923Z,84.66
2019-04-05T02:12:58.727Z,84.70
2019-04-05T02:15:25.663Z,85.13
2019-04-05T02:17:51.470Z,84.75
2019-04-05T02:20:17.369Z,83.08
2019-04-05T02:22:43.196Z,83.71
2019-04-05T02:25:08.991Z,84.23
2019-04-05T02:27:34.791Z,84.42
2019-04-05T02:30:01.846Z,84.53
2019-04-05T02:32:27.641Z,83.84
2019-04-05T02:34:53.425Z,84.24
2019-04-05T02:37:19.212Z,83.80
2019-04-05T02:39:44.909Z,84.02
2019-04-05T02:42:11.132Z,84.50
2019-04-05T02:44:37.761Z,84.84
2019-04-05T02:47:04.443Z,84.68
2019-04-05T02:49:31.162Z,85.10
2019-04-05T02:51:58.787Z,85.93
2019-04-05T02:54:24.937Z,85.39
2019-04-05T02:56:51.108Z,85.02
2019-04-05T02:59:17.625Z,85.17
2019-04-05T03:01:43.822Z,85.60
2019-04-05T03:04:09.622Z,85.36
2019-04-05T03:06:35.654Z,85.25
2019-04-05T03:09:03.839Z,85.20
2019-04-05T03:11:31.238Z,85.31
2019-04-05T03:13:58.883Z,85.73
2019-04-05T03:16:39.607Z,85.24
2019-04-05T03:18:56.022Z,85.51
2019-04-05T03:21:23.333Z,85.51
2019-04-05T03:23:50.217Z,85.37
2019-04-05T03:26:17.511Z,85.77
2019-04-05T03:28:45.143Z,85.87
2019-04-05T03:31:11.257Z,85.96
2019-04-05T03:33:37.087Z,86.30
2019-04-05T03:36:03.056Z,86.46
2019-04-05T03:38:28.953Z,86.31
2019-04-05T03:40:54.744Z,86.07
2019-04-05T03:43:20.591Z,86.09
2019-04-05T03:45:46.410Z,86.49
2019-04-05T03:48:14.232Z,86.47
2019-04-05T03:50:40.135Z,86.21
2019-04-05T03:53:06.312Z,86.31
2019-04-05T03:55:32.146Z,86.57
2019-04-05T03:57:58.026Z,86.30
2019-04-05T04:00:23.899Z,86.31
2019-04-05T04:02:49.847Z,86.66
2019-04-05T04:05:15.793Z,86.71
2019-04-05T04:07:41.664Z,86.83
2019-04-05T04:10:09.436Z,87.06
2019-04-05T04:12:35.218Z,87.21
2019-04-05T04:15:14.005Z,87.10
2019-04-05T04:17:42.229Z,87.19
2019-04-05T04:20:09.928Z,86.62
2019-04-05T04:22:35.769Z,86.72
2019-04-05T04:25:01.716Z,86.58
2019-04-05T04:27:28.331Z,86.24
2019-04-05T04:29:54.548Z,85.85
2019-04-05T04:32:20.281Z,84.96
2019-04-05T04:34:46.340Z,85.27
2019-04-05T04:37:12.131Z,84.91
2019-04-05T04:39:38.211Z,85.33
2019-04-05T04:42:04.061Z,85.28
2019-04-05T04:44:29.923Z,85.74
2019-04-05T04:46:55.918Z,86.18
2019-04-05T04:49:21.820Z,86.29
2019-04-05T04:51:48.327Z,86.19
2019-04-05T04:54:14.177Z,86.37
2019-04-05T04:56:43.486Z,86.17
2019-04-05T04:59:09.195Z,85.70
2019-04-05T05:01:35.262Z,85.42
2019-04-05T05:04:01.353Z,86.10
2019-04-05T05:06:27.342Z,86.32
2019-04-05T05:08:53.380Z,86.17
2019-04-05T05:11:19.198Z,85.60
2019-04-05T05:13:44.997Z,84.97
2019-04-05T05:16:10.894Z,85.52
2019-04-05T05:18:37.440Z,85.74
2019-04-05T05:21:03.553Z,85.56
2019-04-05T05:23:29.440Z,85.23
2019-04-05T05:25:55.227Z,85.35
2019-04-05T05:28:21.104Z,84.94
2019-04-05T05:30:47.071Z,84.91
2019-04-05T05:33:14.543Z,84.78
2019-04-05T05:35:40.447Z,83.68
2019-04-05T05:38:06.331Z,84.01
2019-04-05T05:40:35.146Z,83.82
2019-04-05T05:42:59.852Z,83.77
2019-04-05T05:45:25.695Z,83.92
2019-04-05T05:47:52.587Z,83.31
2019-04-05T05:50:18.530Z,83.55
2019-04-05T05:52:44.497Z,84.15
2019-04-05T05:55:10.287Z,84.06
2019-04-05T05:57:36.078Z,83.99
2019-04-05T06:00:03.209Z,84.32
2019-04-05T06:02:29.060Z,84.20
2019-04-05T06:04:55.232Z,84.31
2019-04-05T06:07:20.928Z,84.82
2019-04-05T06:09:47.771Z,84.21
2019-04-05T06:12:13.659Z,83.78
2019-04-05T06:14:39.570Z,83.10
2019-04-05T06:17:05.354Z,82.49
2019-04-05T06:19:31.128Z,81.27
2019-04-05T06:21:56.822Z,81.03
2019-04-05T06:24:23.027Z,80.66
2019-04-05T06:26:48.763Z,79.83
2019-04-05T06:29:14.539Z,80.16
2019-04-05T06:31:40.439Z,80.13
2019-04-05T06:34:06.131Z,79.79
2019-04-05T06:36:31.835Z,79.35
2019-04-05T06:38:57.548Z,80.58
2019-04-05T06:41:23.330Z,80.31
2019-04-05T06:43:48.999Z,80.22
2019-04-05T06:46:14.730Z,79.97
2019-04-05T06:48:40.495Z,79.40
2019-04-05T06:51:06.320Z,78.83
2019-04-05T06:53:32.063Z,79.41
2019-04-05T06:55:59.791Z,79.32
2019-04-05T06:58:28.887Z,78.87
2019-04-05T07:00:57.178Z,78.13
2019-04-05T07:03:20.721Z,78.12
2019-04-05T07:05:46.609Z,77.29
2019-04-05T07:08:12.368Z,77.53
2019-04-05T07:10:38.176Z,77.18
2019-04-05T07:13:04.583Z,76.90
2019-04-05T07:15:30.591Z,76.55
2019-04-05T07:17:56.280Z,75.99
2019-04-05T07:20:23.784Z,77.00
2019-04-05T07:22:49.735Z,78.14
2019-04-05T07:25:15.422Z,78.44
2019-04-05T07:27:41.378Z,79.11
2019-04-05T07:30:07.194Z,78.75
2019-04-05T07:32:33.004Z,78.09
2019-04-05T07:34:59.641Z,78.32
2019-04-05T07:37:25.419Z,77.92
2019-04-05T07:39:51.126Z,79.27
2019-04-05T07:42:16.832Z,79.65
2019-04-05T07:44:42.518Z,78.67
2019-04-05T07:47:08.219Z,79.55
2019-04-05T07:49:33.910Z,78.99
2019-04-05T07:51:59.747Z,78.28
2019-04-05T07:54:25.444Z,78.98
2019-04-05T07:56:51.209Z,79.71
2019-04-05T07:59:17.043Z,79.01
2019-04-05T08:01:42.948Z,79.42
2019-04-05T08:04:08.669Z,78.82
2019-04-05T08:06:36.050Z,79.05
2019-04-05T08:09:06.757Z,77.37
2019-04-05T08:11:32.623Z,77.03
2019-04-05T08:14:00.307Z,78.48
2019-04-05T08:16:26.390Z,78.13
2019-04-05T08:18:57.904Z,78.09
2019-04-05T08:21:19.671Z,78.43
2019-04-05T08:23:45.534Z,78.13
2019-04-05T08:26:11.253Z,78.56
2019-04-05T08:28:37.029Z,77.93
2019-04-05T08:31:02.838Z,78.42
2019-04-05T08:33:28.546Z,77.10
2019-04-05T08:35:54.816Z,76.45
2019-04-05T08:38:20.522Z,76.37
2019-04-05T08:40:46.320Z,76.16
2019-04-05T08:43:12.140Z,74.47
2019-04-05T08:45:37.836Z,76.19
2019-04-05T08:48:03.647Z,75.00
2019-04-05T08:50:29.480Z,75.13
2019-04-05T08:52:55.332Z,74.86
2019-04-05T08:55:21.230Z,74.89
2019-04-05T08:57:48.206Z,74.99
2019-04-05T09:00:14.262Z,74.82
2019-04-05T09:02:39.985Z,72.68
2019-04-05T09:05:06.163Z,73.38
2019-04-05T09:07:31.990Z,73.28
2019-04-05T09:09:57.797Z,73.44
2019-04-05T09:12:23.643Z,72.21
2019-04-05T09:14:49.353Z,70.71
2019-04-05T09:17:15.040Z,68.87
2019-04-05T09:19:40.802Z,67.90
2019-04-05T09:22:06.541Z,67.21
2019-04-05T09:24:32.458Z,65.38
2019-04-05T09:26:58.131Z,66.69
2019-04-05T09:29:23.922Z,66.78
2019-04-05T09:31:49.678Z,65.52
2019-04-05T09:34:15.580Z,66.45
2019-04-05T09:36:41.504Z,65.72
2019-04-05T09:39:13.657Z,64.35
2019-04-05T09:41:37.209Z,64.26
2019-04-05T09:44:03.133Z,64.62
2019-04-05T09:46:28.811Z,65.26
2019-04-05T09:48:54.484Z,64.18
2019-04-05T09:51:20.316Z,64.33
2019-04-05T09:53:46.147Z,64.90
2019-04-05T09:56:12.105Z,62.89
2019-04-05T09:58:37.902Z,63.68
2019-04-05T10:01:03.829Z,61.76
2019-04-05T10:03:29.751Z,63.45
2019-04-05T10:05:55.501Z,63.20
2019-04-05T10:08:21.284Z,61.42
2019-04-05T10:10:47.208Z,62.73
2019-04-05T10:13:12.964Z,62.98
2019-04-05T10:15:38.691Z,61.55
2019-04-05T10:18:04.580Z,62.92
2019-04-05T10:20:30.393Z,63.01
2019-04-05T10:22:56.266Z,61.92
2019-04-05T10:25:21.985Z,61.16
2019-04-05T10:27:47.713Z,60.29
2019-04-05T10:30:13.942Z,61.05
2019-04-05T10:32:39.786Z,60.24
2019-04-05T10:35:06.426Z,58.65
2019-04-05T10:37:32.352Z,58.99
2019-04-05T10:39:58.086Z,56.10
2019-04-05T10:42:30.924Z,56.95
2019-04-05T10:44:56.777Z,57.55
2019-04-05T10:47:22.566Z,56.73
2019-04-05T10:49:48.426Z,57.74
2019-04-05T10:52:14.191Z,57.02
2019-04-05T10:54:40.113Z,57.04
2019-04-05T10:57:06.055Z,56.98
2019-04-05T10:59:31.785Z,55.87
2019-04-05T11:01:57.570Z,57.63
2019-04-05T11:04:23.383Z,58.60
2019-04-05T11:06:49.167Z,59.64
2019-04-05T11:09:14.950Z,58.78
2019-04-05T11:11:40.634Z,56.72
2019-04-05T11:14:13.630Z,59.04
2019-04-05T11:16:34.093Z,59.03
2019-04-05T11:19:01.934Z,60.27
2019-04-05T11:21:27.502Z,59.74
2019-04-05T11:23:53.553Z,58.89
2019-04-05T11:26:20.792Z,59.20
2019-04-05T11:28:46.609Z,59.35
2019-04-05T11:31:12.520Z,59.78
2019-04-05T11:33:38.345Z,59.38
2019-04-05T11:36:04.010Z,58.82
2019-04-05T11:38:30.094Z,58.01
2019-04-05T11:40:56.187Z,56.65
2019-04-05T11:43:26.148Z,55.76
2019-04-05T11:45:53.852Z,57.26
2019-04-05T11:48:19.510Z,56.32
2019-04-05T11:50:45.206Z,55.93
2019-04-05T11:53:11.046Z,56.17
2019-04-05T11:55:36.707Z,56.95
2019-04-05T11:58:02.484Z,57.99
2019-04-05T12:00:30.175Z,57.91
2019-04-05T12:02:57.796Z,57.61
2019-04-05T12:05:26.913Z,56.10
2019-04-05T12:07:51.209Z,57.09
2019-04-05T12:10:19.425Z,55.08
2019-04-05T12:12:44.540Z,55.23
2019-04-05T12:15:10.357Z,55.49
2019-04-05T12:17:36.220Z,53.02
2019-04-05T12:20:03.578Z,53.10
2019-04-05T12:22:29.396Z,53.06
2019-04-05T12:24:55.225Z,52.65
2019-04-05T12:27:21.078Z,49.89
2019-04-05T12:29:46.906Z,50.76
2019-04-05T12:32:15.637Z,53.16
2019-04-05T12:34:40.765Z,51.96
2019-04-05T12:37:06.613Z,53.23
2019-04-05T12:39:32.478Z,51.82
2019-04-05T12:41:58.165Z,52.45
2019-04-05T12:44:23.944Z,53.21
2019-04-05T12:46:49.874Z,52.26
2019-04-05T12:49:15.820Z,51.42
2019-04-05T12:51:43.416Z,51.41
2019-04-05T12:54:09.324Z,50.37
2019-04-05T12:56:35.045Z,51.61
2019-04-05T12:59:02.128Z,52.20
2019-04-05T13:01:28.256Z,51.27
2019-04-05T13:03:54.237Z,50.84
2019-04-05T13:06:21.769Z,50.20
2019-04-05T13:08:47.595Z,49.53
2019-04-05T13:11:13.360Z,48.25
2019-04-05T13:13:39.189Z,47.36
2019-04-05T13:16:05.009Z,48.23
2019-04-05T13:18:31.753Z,47.96
2019-04-05T13:20:58.259Z,48.21
2019-04-05T13:23:25.389Z,49.41
2019-04-05T13:25:51.312Z,47.83
2019-04-05T13:28:18.950Z,47.90
2019-04-05T13:30:48.172Z,46.04
2019-04-05T13:33:12.476Z,46.10
2019-04-05T13:35:38.262Z,45.35
2019-04-05T13:38:04.086Z,44.89
2019-04-05T13:40:30.208Z,45.44
2019-04-05T13:42:56.015Z,45.87
2019-04-05T13:45:21.914Z,43.11
2019-04-05T13:47:47.734Z,41.21
2019-04-05T13:50:13.647Z,40.96
2019-04-05T13:52:42.124Z,40.41
2019-04-05T13:55:10.513Z,41.12
2019-04-05T13:57:34.916Z,39.50
2019-04-05T14:00:02.095Z,39.33
2019-04-05T14:02:28.022Z,40.95
2019-04-05T14:04:54.392Z,41.00
2019-04-05T14:07:23.454Z,41.31
2019-04-05T14:09:48.033Z,41.10
2019-04-05T14:12:13.787Z,42.97
2019-04-05T14:14:41.600Z,43.93
2019-04-05T14:17:07.321Z,44.01
2019-04-05T14:19:33.351Z,42.67
2019-04-05T14:22:08.374Z,42.80
2019-04-05T14:24:26.762Z,41.11
2019-04-05T14:26:52.534Z,41.88
2019-04-05T14:29:18.423Z,41.98
2019-04-05T14:31:44.374Z,42.48
2019-04-05T14:34:10.288Z,42.48
2019-04-05T14:36:36.148Z,42.43
2019-04-05T14:39:01.996Z,43.55
2019-04-05T14:41:27.839Z,43.62
2019-04-05T14:43:53.663Z,43.27
2019-04-05T14:46:19.571Z,43.39
2019-04-05T14:48:45.421Z,43.22
2019-04-05T14:51:11.402Z,43.20
2019-04-05T14:53:37.090Z,44.13
2019-04-05T14:56:03.239Z,44.42
2019-04-05T14:58:29.105Z,44.84
2019-04-05T15:00:54.823Z,44.15
2019-04-05T15:03:20.658Z,44.59
2019-04-05T15:05:46.731Z,44.52
2019-04-05T15:08:12.702Z,45.00
2019-04-05T15:10:38.481Z,45.47
2019-04-05T15:13:04.376Z,45.19
2019-04-05T15:15:30.390Z,44.65
2019-04-05T15:17:56.117Z,45.30
2019-04-05T15:20:22.085Z,45.46
2019-04-05T15:22:47.861Z,45.38
2019-04-05T15:25:16.592Z,45.25
2019-04-05T15:27:41.329Z,45.99
2019-04-05T15:30:07.276Z,45.75
2019-04-05T15:32:33.772Z,46.43
2019-04-05T15:34:59.519Z,46.34
2019-04-05T15:37:25.194Z,46.84
2019-04-05T15:39:50.995Z,47.49
2019-04-05T15:42:16.743Z,47.17
2019-04-05T15:44:42.558Z,48.20
2019-04-05T15:47:08.414Z,47.37
2019-04-05T15:49:34.299Z,47.92
2019-04-05T15:52:00.033Z,48.01
2019-04-05T15:54:28.816Z,47.86
2019-04-05T15:56:53.446Z,48.07
2019-04-05T15:59:21.753Z,48.60
2019-04-05T16:01:46.966Z,48.16
2019-04-05T16:04:12.767Z,48.10
2019-04-05T16:06:39.221Z,47.45
2019-04-05T16:09:05.988Z,47.51
2019-04-05T16:11:31.891Z,46.87
2019-04-05T16:13:57.567Z,47.29
2019-04-05T16:16:23.317Z,47.17
2019-04-05T16:18:49.025Z,48.12
2019-04-05T16:21:14.848Z,48.48
2019-04-05T16:23:40.622Z,48.38
2019-04-05T16:26:06.416Z,48.63
2019-04-05T16:28:32.210Z,48.95
2019-04-05T16:30:58.033Z,49.30
2019-04-05T16:33:23.842Z,49.17
2019-04-05T16:35:49.578Z,48.93
2019-04-05T16:38:15.260Z,48.76
2019-04-05T16:40:41.149Z,48.97
2019-04-05T16:43:07.327Z,48.71
2019-04-05T16:45:34.751Z,49.31
2019-04-05T16:48:00.526Z,49.51
2019-04-05T16:50:26.383Z,49.52
2019-04-05T16:52:52.195Z,49.97
2019-04-05T16:55:18.029Z,50.17
2019-04-05T16:57:43.880Z,49.78
2019-04-05T17:00:11.288Z,50.42
2019-04-05T17:02:37.256Z,51.38
2019-04-05T17:05:04.145Z,51.28
2019-04-05T17:07:29.880Z,51.41
2019-04-05T17:09:55.920Z,51.46
2019-04-05T17:12:21.730Z,50.99
2019-04-05T17:14:47.510Z,51.26
2019-04-05T17:17:13.291Z,52.35
2019-04-05T17:19:39.076Z,52.04
2019-04-05T17:22:04.850Z,52.35
2019-04-05T17:24:30.847Z,52.69
2019-04-05T17:26:56.624Z,52.87
2019-04-05T17:29:22.657Z,53.65
2019-04-05T17:31:48.621Z,54.19
2019-04-05T17:34:14.488Z,54.40
2019-04-05T17:36:40.431Z,55.26
2019-04-05T17:39:06.354Z,55.84
2019-04-05T17:41:32.210Z,55.97
2019-04-05T17:44:00.489Z,56.50
2019-04-05T17:46:26.170Z,55.32
2019-04-05T17:48:52.054Z,55.01
2019-04-05T17:51:17.954Z,55.02
2019-04-05T17:53:43.779Z,56.64
2019-04-05T17:56:09.592Z,57.75
2019-04-05T17:58:35.430Z,57.89
2019-04-05T18:01:02.179Z,58.10
2019-04-05T18:03:28.005Z,58.83
2019-04-05T18:05:53.913Z,59.78
2019-04-05T18:08:20.933Z,60.39
2019-04-05T18:10:46.804Z,60.82
2019-04-05T18:13:12.516Z,61.42
2019-04-05T18:15:46.694Z,61.36
2019-04-05T18:18:05.971Z,61.23
2019-04-05T18:20:31.727Z,61.36
2019-04-05T18:22:57.521Z,61.92
2019-04-05T18:25:23.219Z,62.09
2019-04-05T18:27:49.119Z,61.40
2019-04-05T18:30:15.104Z,61.42
2019-04-05T18:32:41.030Z,61.54
2019-04-05T18:35:06.960Z,61.43
2019-04-05T18:37:35.120Z,61.36
2019-04-05T18:40:00.377Z,59.43
2019-04-05T18:42:26.149Z,59.77
2019-04-05T18:44:52.137Z,59.60
2019-04-05T18:47:18.149Z,59.14
2019-04-05T18:49:43.940Z,59.23
2019-04-05T18:52:09.844Z,59.25
2019-04-05T18:54:35.665Z,59.87
2019-04-05T18:57:01.496Z,60.15
2019-04-05T18:59:27.363Z,60.57
2019-04-05T19:01:53.230Z,60.59
2019-04-05T19:04:19.082Z,60.84
2019-04-05T19:06:45.011Z,61.37
2019-04-05T19:09:12.083Z,61.11
2019-04-05T19:11:38.055Z,61.77
2019-04-05T19:14:03.921Z,61.49
2019-04-05T19:16:29.758Z,61.13
2019-04-05T19:18:55.628Z,61.56
2019-04-05T19:21:21.647Z,61.21
2019-04-05T19:23:51.030Z,61.55
2019-04-05T19:26:15.239Z,61.75
2019-04-05T19:28:41.012Z,61.63
2019-04-05T19:50:49.805Z,62.83
2019-04-05T19:53:15.784Z,62.71
2019-04-05T19:55:41.697Z,62.84
2019-04-05T19:58:07.544Z,63.66
2019-04-05T20:00:33.478Z,64.36
2019-04-05T20:02:59.420Z,64.81
2019-04-05T20:05:25.373Z,64.17
2019-04-05T20:07:51.234Z,64.21
2019-04-05T20:10:17.231Z,64.58
2019-04-05T20:12:43.104Z,64.70
2019-04-05T20:15:08.918Z,65.04
2019-04-05T20:17:34.784Z,65.09
2019-04-05T20:20:00.738Z,65.26
2019-04-05T20:22:26.530Z,65.38
2019-04-05T20:24:52.358Z,65.35
2019-04-05T20:27:18.656Z,65.27
2019-04-05T20:29:44.542Z,65.65
2019-04-05T20:32:10.484Z,65.21
2019-04-05T20:34:36.283Z,66.07
2019-04-05T20:37:02.108Z,65.71
2019-04-05T20:39:31.312Z,66.51
2019-04-05T20:41:57.131Z,65.38
2019-04-05T20:44:22.973Z,65.16
2019-04-05T20:46:48.811Z,64.87
2019-04-05T20:49:15.924Z,65.67
2019-04-05T20:51:41.725Z,65.69
2019-04-05T20:54:07.564Z,66.00
2019-04-05T20:56:33.373Z,66.12
2019-04-05T20:58:59.288Z,65.54
2019-04-05T21:01:25.109Z,65.23
2019-04-05T21:03:51.063Z,64.87
2019-04-05T21:06:17.302Z,65.57
2019-04-05T21:08:45.080Z,65.70
2019-04-05T21:11:10.853Z,65.82
2019-04-05T21:13:40.114Z,65.82
2019-04-05T21:16:05.951Z,65.90
2019-04-05T21:18:31.790Z,65.89
2019-04-05T21:20:57.638Z,66.11
2019-04-05T21:23:23.449Z,66.41
2019-04-05T21:25:49.384Z,66.79
2019-04-05T21:28:15.199Z,67.03
2019-04-05T21:30:40.908Z,66.96
2019-04-05T21:33:06.649Z,67.30
2019-04-05T21:35:32.596Z,67.69
2019-04-05T21:37:58.421Z,67.80
2019-04-05T21:40:24.242Z,67.86
2019-04-05T21:42:50.379Z,67.93
2019-04-05T21:45:16.390Z,68.15
2019-04-05T21:47:44.141Z,67.20
2019-04-05T21:50:10.252Z,67.73
2019-04-05T21:52:36.249Z,67.83
2019-04-05T21:55:03.421Z,67.29
2019-04-05T21:57:29.274Z,67.20
2019-04-05T21:59:55.236Z,66.71
2019-04-05T22:02:21.234Z,66.84
2019-04-05T22:04:47.025Z,66.57
2019-04-05T22:07:13.012Z,66.68
2019-04-05T22:09:38.844Z,67.23
2019-04-05T22:12:04.714Z,67.40
2019-04-05T22:14:30.677Z,67.94
2019-04-05T22:16:56.494Z,67.68
2019-04-05T22:19:22.318Z,67.92
2019-04-05T22:21:48.202Z,67.84
2019-04-05T22:24:14.003Z,67.77
2019-04-05T22:26:39.687Z,67.68
2019-04-05T22:29:05.422Z,67.63
2019-04-05T22:31:31.150Z,67.53
2019-04-05T22:33:56.930Z,67.48
2019-04-05T22:36:22.673Z,67.60
2019-04-05T22:38:48.490Z,67.79
2019-04-05T22:41:14.326Z,67.77
2019-04-05T22:43:40.113Z,67.85
2019-04-05T22:46:05.870Z,67.90
2019-04-05T22:48:31.624Z,67.86
2019-04-05T22:50:57.327Z,68.08
2019-04-05T22:53:23.145Z,68.33
2019-04-05T22:55:48.855Z,68.49
2019-04-05T22:58:14.625Z,68.42
2019-04-05T23:00:40.404Z,68.57
2019-04-05T23:03:06.119Z,68.55
2019-04-05T23:05:31.933Z,68.94
2019-04-05T23:07:57.880Z,69.29
2019-04-05T23:10:23.628Z,69.35
2019-04-05T23:12:49.291Z,69.31
2019-04-05T23:15:15.153Z,69.27
2019-04-05T23:17:40.813Z,69.26
2019-04-05T23:20:06.602Z,69.23
2019-04-05T23:22:32.519Z,69.33
2019-04-05T23:24:58.291Z,69.11
2019-04-05T23:27:24.095Z,69.26
2019-04-05T23:29:49.840Z,69.58
2019-04-05T23:32:15.724Z,69.83
2019-04-05T23:34:41.544Z,69.73
2019-04-05T23:37:07.234Z,70.06
2019-04-05T23:39:32.920Z,69.95
2019-04-05T23:41:58.746Z,70.58
2019-04-05T23:44:24.464Z,70.58
2019-04-05T23:46:52.603Z,70.53
2019-04-05T23:49:17.925Z,71.05
2019-04-05T23:51:43.707Z,71.06
2019-04-05T23:54:09.431Z,71.12
2019-04-05T23:56:35.136Z,71.15
2019-04-05T23:59:01.056Z,71.03
